createdAt,value
2019-04-25T00:01:28.416Z,99.90
2019-04-25T00:03:56.937Z,99.90
2019-04-25T00:06:26.087Z,99.90
2019-04-25T00:08:54.618Z,99.90
2019-04-25T00:11:23.603Z,99.90
2019-04-25T00:13:52.037Z,99.90
2019-04-25T00:16:22.383Z,99.90
2019-04-25T00:18:51.721Z,99.90
2019-04-25T00:21:25.068Z,99.90
2019-04-25T00:23:55.201Z,99.90
2019-04-25T00:26:37.353Z,99.90
2019-04-25T00:29:07.754Z,99.90
2019-04-25T00:31:39.344Z,99.90
2019-04-25T00:34:09.495Z,99.90
2019-04-25T00:36:39.102Z,99.90
2019-04-25T00:39:07.836Z,99.90
2019-04-25T00:41:36.417Z,99.90
2019-04-25T00:44:05.747Z,99.90
2019-04-25T00:46:34.281Z,99.90
2019-04-25T00:49:02.720Z,99.90
2019-04-25T00:51:31.813Z,99.90
2019-04-25T00:54:02.069Z,99.90
2019-04-25T00:56:32.189Z,99.90
2019-04-25T00:59:02.508Z,99.90
2019-04-25T01:01:35.597Z,99.90
2019-04-25T01:04:04.261Z,99.90
2019-04-25T01:06:32.706Z,99.90
2019-04-25T01:09:01.519Z,99.90
2019-04-25T01:11:31.371Z,99.90
2019-04-25T01:13:59.956Z,99.90
2019-04-25T01:16:28.426Z,99.90
2019-04-25T01:18:57.767Z,99.90
2019-04-25T01:21:26.307Z,99.90
2019-04-25T01:23:55.701Z,99.90
2019-04-25T01:26:26.190Z,99.90
2019-04-25T01:28:54.936Z,99.90
2019-04-25T01:31:25.212Z,99.90
2019-04-25T01:34:14.736Z,99.90
2019-04-25T01:36:44.820Z,99.90
2019-04-25T01:39:27.122Z,99.90
2019-04-25T01:42:00.156Z,99.90
2019-04-25T01:44:31.066Z,99.90
2019-04-25T01:46:59.503Z,99.90
2019-04-25T01:49:28.051Z,99.90
2019-04-25T01:51:57.437Z,99.90
2019-04-25T01:54:27.026Z,99.90
2019-04-25T01:56:56.220Z,99.90
2019-04-25T01:59:24.817Z,99.90
2019-04-25T02:01:54.576Z,99.90
2019-04-25T02:04:23.546Z,99.90
2019-04-25T02:06:53.672Z,99.90
2019-04-25T02:09:23.575Z,99.90
2019-04-25T02:11:57.657Z,99.90
2019-04-25T02:14:27.648Z,99.90
2019-04-25T02:16:57.142Z,99.90
2019-04-25T02:19:26.037Z,99.90
2019-04-25T02:21:55.398Z,99.90
2019-04-25T02:24:24.778Z,99.90
2019-04-25T02:26:55.217Z,99.90
2019-04-25T02:29:23.573Z,99.90
2019-04-25T02:31:54.674Z,99.90
2019-04-25T02:34:24.803Z,99.90
2019-04-25T02:36:55.542Z,99.90
2019-04-25T02:39:24.552Z,99.90
2019-04-25T02:41:56.028Z,99.90
2019-04-25T02:44:24.805Z,99.90
2019-04-25T02:46:58.733Z,99.90
2019-04-25T02:49:40.355Z,99.90
2019-04-25T02:52:25.531Z,99.90
2019-04-25T02:54:55.776Z,99.90
2019-04-25T02:57:25.148Z,99.90
2019-04-25T02:59:54.825Z,99.90
2019-04-25T03:02:24.894Z,99.90
2019-04-25T03:04:54.522Z,99.90
2019-04-25T03:07:24.571Z,99.90
2019-04-25T03:09:54.776Z,99.90
2019-04-25T03:12:32.503Z,99.90
2019-04-25T03:14:55.149Z,99.90
2019-04-25T03:17:24.589Z,99.90
2019-04-25T03:20:11.193Z,99.90
2019-04-25T03:22:37.553Z,99.90
2019-04-25T03:25:11.020Z,99.90
2019-04-25T03:27:37.225Z,99.90
2019-04-25T03:30:11.781Z,99.90
2019-04-25T03:32:38.325Z,99.90
2019-04-25T03:35:07.234Z,99.90
2019-04-25T03:37:35.751Z,99.90
2019-04-25T03:40:06.629Z,99.90
2019-04-25T03:42:36.137Z,99.90
2019-04-25T03:45:06.096Z,99.90
2019-04-25T03:47:34.625Z,99.90
2019-04-25T03:50:05.862Z,99.90
2019-04-25T03:52:34.943Z,99.90
2019-04-25T03:55:05.138Z,99.90
2019-04-25T03:57:34.705Z,99.90
2019-04-25T04:00:06.205Z,99.90
2019-04-25T04:02:34.569Z,99.90
2019-04-25T04:05:06.022Z,99.90
2019-04-25T04:07:33.934Z,99.90
2019-04-25T04:10:04.542Z,99.90
2019-04-25T04:12:33.952Z,99.90
2019-04-25T04:15:04.684Z,99.90
2019-04-25T04:17:37.567Z,99.90
2019-04-25T04:20:11.123Z,99.90
2019-04-25T04:22:47.345Z,99.90
2019-04-25T04:25:17.423Z,99.90
2019-04-25T04:27:45.894Z,99.90
2019-04-25T04:30:16.492Z,99.90
2019-04-25T04:32:45.026Z,99.90
2019-04-25T04:35:14.743Z,99.90
2019-04-25T04:37:43.818Z,99.90
2019-04-25T04:40:12.414Z,99.90
2019-04-25T04:42:40.854Z,99.90
2019-04-25T04:45:10.177Z,99.90
2019-04-25T04:47:38.841Z,99.90
2019-04-25T04:50:08.911Z,99.90
2019-04-25T04:52:37.462Z,99.90
2019-04-25T04:55:09.774Z,99.90
2019-04-25T04:57:37.730Z,99.90
2019-04-25T05:00:07.677Z,99.90
2019-04-25T05:02:46.603Z,99.90
2019-04-25T05:05:31.434Z,99.90
2019-04-25T05:08:01.611Z,99.90
2019-04-25T05:10:30.067Z,99.90
2019-04-25T05:12:58.647Z,99.90
2019-04-25T05:15:27.188Z,99.80
2019-04-25T05:17:55.769Z,99.60
2019-04-25T05:20:24.388Z,99.40
2019-04-25T05:22:53.328Z,99.30
2019-04-25T05:25:24.304Z,99.30
2019-04-25T05:28:01.980Z,98.70
2019-04-25T05:30:26.554Z,98.80
2019-04-25T05:32:55.309Z,99.10
2019-04-25T05:35:24.387Z,98.40
2019-04-25T05:37:53.927Z,98.40
2019-04-25T05:40:24.106Z,97.80
2019-04-25T05:42:54.334Z,98.10
2019-04-25T05:45:27.177Z,97.60
2019-04-25T05:47:55.650Z,97.50
2019-04-25T05:50:25.108Z,97.20
2019-04-25T05:52:54.210Z,96.90
2019-04-25T05:55:24.171Z,97.30
2019-04-25T05:57:53.640Z,96.90
2019-04-25T06:00:24.704Z,96.90
2019-04-25T06:02:53.377Z,96.30
2019-04-25T06:05:24.768Z,97.10
2019-04-25T06:07:52.254Z,96.60
2019-04-25T06:10:28.411Z,96.20
2019-04-25T06:13:04.471Z,95.60
2019-04-25T06:15:33.403Z,95.60
2019-04-25T06:18:14.005Z,95.70
2019-04-25T06:20:44.296Z,95.20
2019-04-25T06:23:14.461Z,95.20
2019-04-25T06:25:43.973Z,94.80
2019-04-25T06:28:14.166Z,95.10
2019-04-25T06:30:44.252Z,94.40
2019-04-25T06:33:14.553Z,93.90
2019-04-25T06:35:44.734Z,93.60
2019-04-25T06:38:13.494Z,93.70
2019-04-25T06:40:43.595Z,93.30
2019-04-25T06:43:13.436Z,93.30
2019-04-25T06:45:55.225Z,92.70
2019-04-25T06:48:27.524Z,92.90
2019-04-25T06:50:56.070Z,92.70
2019-04-25T06:53:25.774Z,92.30
2019-04-25T06:55:54.696Z,92.20
2019-04-25T06:58:25.610Z,92.40
2019-04-25T07:00:58.932Z,92.00
2019-04-25T07:03:25.147Z,92.00
2019-04-25T07:05:53.808Z,91.40
2019-04-25T07:08:23.774Z,90.60
2019-04-25T07:10:55.121Z,90.90
2019-04-25T07:13:24.699Z,91.20
2019-04-25T07:15:53.402Z,91.10
2019-04-25T07:18:23.543Z,91.10
2019-04-25T07:20:53.366Z,90.90
2019-04-25T07:23:23.622Z,89.80
2019-04-25T07:25:54.271Z,87.30
2019-04-25T07:28:29.776Z,85.70
2019-04-25T07:31:17.154Z,86.00
2019-04-25T07:33:47.273Z,85.50
2019-04-25T07:36:15.713Z,86.00
2019-04-25T07:38:44.178Z,87.40
2019-04-25T07:41:14.627Z,86.90
2019-04-25T07:43:43.360Z,86.60
2019-04-25T07:46:13.374Z,86.00
2019-04-25T07:48:43.693Z,84.80
2019-04-25T07:51:15.890Z,82.40
2019-04-25T07:53:43.627Z,80.50
2019-04-25T07:56:14.088Z,81.20
2019-04-25T07:58:50.457Z,81.20
2019-04-25T08:01:14.193Z,79.40
2019-04-25T08:03:43.882Z,80.10
2019-04-25T08:06:13.772Z,79.00
2019-04-25T08:08:43.636Z,80.60
2019-04-25T08:11:14.062Z,79.90
2019-04-25T08:13:50.572Z,81.00
2019-04-25T08:16:23.542Z,78.10
2019-04-25T08:18:53.955Z,77.50
2019-04-25T08:21:23.904Z,78.60
2019-04-25T08:23:53.328Z,78.00
2019-04-25T08:26:22.133Z,78.80
2019-04-25T08:28:55.718Z,78.10
2019-04-25T08:31:21.394Z,79.30
2019-04-25T08:33:49.835Z,79.50
2019-04-25T08:36:18.353Z,78.70
2019-04-25T08:38:46.816Z,78.30
2019-04-25T08:41:15.261Z,77.00
2019-04-25T08:43:45.420Z,76.30
2019-04-25T08:46:14.149Z,74.00
2019-04-25T08:49:05.926Z,72.00
2019-04-25T08:51:40.097Z,72.40
2019-04-25T08:54:16.187Z,73.30
2019-04-25T08:56:44.709Z,72.50
2019-04-25T08:59:40.064Z,71.60
2019-04-25T09:02:20.047Z,72.20
2019-04-25T09:04:50.134Z,71.30
2019-04-25T09:07:18.599Z,71.90
2019-04-25T09:09:47.065Z,70.10
2019-04-25T09:12:15.510Z,69.90
2019-04-25T09:14:46.292Z,68.60
2019-04-25T09:17:15.098Z,70.00
2019-04-25T09:19:44.432Z,70.10
2019-04-25T09:22:13.798Z,69.20
2019-04-25T09:24:44.111Z,69.60
2019-04-25T09:27:13.436Z,68.70
2019-04-25T09:29:46.219Z,68.10
2019-04-25T09:32:15.120Z,67.80
2019-04-25T09:34:43.780Z,69.50
2019-04-25T09:37:14.082Z,70.10
2019-04-25T09:40:00.856Z,70.90
2019-04-25T09:42:29.558Z,66.90
2019-04-25T09:45:08.431Z,64.50
2019-04-25T09:47:39.201Z,65.20
2019-04-25T09:50:10.735Z,64.20
2019-04-25T09:52:40.232Z,64.00
2019-04-25T09:55:28.574Z,65.30
2019-04-25T09:57:58.675Z,64.90
2019-04-25T10:00:38.713Z,63.10
2019-04-25T10:03:07.329Z,64.40
2019-04-25T10:05:36.858Z,63.90
2019-04-25T10:08:05.729Z,64.90
2019-04-25T10:10:34.314Z,65.20
2019-04-25T10:13:04.848Z,63.60
2019-04-25T10:15:58.941Z,62.30
2019-04-25T10:18:27.486Z,60.60
2019-04-25T10:20:56.205Z,59.90
2019-04-25T10:23:24.721Z,59.20
2019-04-25T10:25:53.853Z,59.50
2019-04-25T10:28:23.411Z,58.20
2019-04-25T10:30:53.067Z,58.70
2019-04-25T10:33:24.354Z,60.00
2019-04-25T10:35:58.868Z,60.90
2019-04-25T10:38:26.403Z,61.90
2019-04-25T10:40:55.208Z,60.90
2019-04-25T10:43:24.056Z,60.10
2019-04-25T10:45:53.384Z,59.40
2019-04-25T10:48:24.035Z,58.30
2019-04-25T10:50:53.889Z,58.40
2019-04-25T10:53:23.242Z,58.90
2019-04-25T10:55:53.134Z,57.00
2019-04-25T10:58:21.686Z,57.60
2019-04-25T11:00:52.838Z,57.60
2019-04-25T11:03:24.137Z,57.20
2019-04-25T11:05:54.423Z,57.80
2019-04-25T11:08:24.539Z,58.80
2019-04-25T11:10:54.855Z,57.50
2019-04-25T11:13:23.562Z,57.60
2019-04-25T11:15:52.282Z,56.50
2019-04-25T11:18:20.847Z,56.80
2019-04-25T11:20:50.378Z,57.20
2019-04-25T11:23:19.048Z,56.50
2019-04-25T11:25:47.795Z,57.20
2019-04-25T11:28:16.601Z,57.40
2019-04-25T11:30:47.313Z,56.80
2019-04-25T11:33:16.490Z,56.50
2019-04-25T11:35:47.465Z,56.20
2019-04-25T11:38:16.821Z,56.40
2019-04-25T11:40:49.696Z,56.80
2019-04-25T11:43:17.159Z,56.90
2019-04-25T11:45:46.051Z,56.50
2019-04-25T11:48:15.299Z,56.60
2019-04-25T11:50:48.172Z,55.90
2019-04-25T11:53:14.255Z,56.60
2019-04-25T11:55:43.575Z,56.30
2019-04-25T11:58:12.114Z,56.70
2019-04-25T12:00:40.646Z,57.30
2019-04-25T12:03:09.287Z,56.50
2019-04-25T12:05:37.752Z,57.00
2019-04-25T12:08:07.157Z,57.30
2019-04-25T12:10:36.168Z,58.10
2019-04-25T12:13:04.704Z,56.70
2019-04-25T12:15:33.437Z,55.60
2019-04-25T12:18:01.957Z,56.60
2019-04-25T12:20:30.661Z,56.40
2019-04-25T12:23:08.312Z,54.80
2019-04-25T12:25:29.344Z,53.60
2019-04-25T12:27:57.832Z,52.70
2019-04-25T12:30:37.275Z,54.20
2019-04-25T12:32:56.925Z,54.20
2019-04-25T12:35:25.509Z,53.80
2019-04-25T12:37:55.153Z,53.20
2019-04-25T12:40:24.285Z,53.30
2019-04-25T12:42:52.889Z,52.80
2019-04-25T12:45:25.698Z,50.60
2019-04-25T12:47:58.847Z,49.40
2019-04-25T12:50:26.080Z,50.20
2019-04-25T12:52:55.043Z,51.70
2019-04-25T12:55:24.554Z,52.50
2019-04-25T12:57:54.917Z,53.00
2019-04-25T13:00:26.931Z,53.10
2019-04-25T13:02:56.470Z,54.20
2019-04-25T13:05:25.243Z,54.20
2019-04-25T13:07:56.681Z,52.30
2019-04-25T13:10:23.941Z,53.90
2019-04-25T13:12:55.218Z,53.30
2019-04-25T13:15:25.231Z,53.50
2019-04-25T13:17:53.641Z,54.10
2019-04-25T13:20:22.318Z,54.30
2019-04-25T13:22:50.864Z,54.90
2019-04-25T13:25:21.186Z,53.50
2019-04-25T13:27:51.351Z,54.10
2019-04-25T13:30:37.966Z,52.90
2019-04-25T13:33:10.880Z,52.80
2019-04-25T13:35:41.061Z,52.90
2019-04-25T13:38:09.526Z,53.30
2019-04-25T13:40:37.994Z,54.30
2019-04-25T13:43:06.507Z,54.30
2019-04-25T13:45:35.663Z,54.40
2019-04-25T13:48:04.894Z,55.40
2019-04-25T13:50:34.400Z,55.50
2019-04-25T13:53:03.338Z,54.50
2019-04-25T13:55:32.209Z,55.20
2019-04-25T13:58:00.846Z,56.00
2019-04-25T14:00:30.201Z,55.10
2019-04-25T14:02:58.794Z,56.70
2019-04-25T14:05:28.847Z,55.00
2019-04-25T14:07:57.330Z,53.80
2019-04-25T14:10:26.491Z,54.10
2019-04-25T14:12:55.246Z,54.20
2019-04-25T14:15:25.437Z,53.20
2019-04-25T14:18:13.673Z,54.40
2019-04-25T14:20:49.717Z,54.00
2019-04-25T14:23:18.228Z,52.50
2019-04-25T14:25:46.772Z,54.70
2019-04-25T14:28:16.276Z,54.20
2019-04-25T14:30:44.810Z,54.20
2019-04-25T14:33:13.638Z,52.00
2019-04-25T14:35:42.222Z,52.00
2019-04-25T14:38:10.710Z,51.20
2019-04-25T14:40:39.214Z,51.40
2019-04-25T14:43:07.835Z,51.80
2019-04-25T14:45:44.415Z,51.50
2019-04-25T14:48:06.457Z,52.60
2019-04-25T14:50:34.887Z,52.50
2019-04-25T14:53:03.350Z,51.90
2019-04-25T14:55:41.998Z,51.60
2019-04-25T14:58:15.095Z,52.30
2019-04-25T15:00:46.160Z,53.10
2019-04-25T15:03:14.658Z,53.70
2019-04-25T15:05:43.542Z,52.80
2019-04-25T15:08:12.287Z,51.60
2019-04-25T15:10:40.718Z,53.30
2019-04-25T15:13:09.795Z,52.40
2019-04-25T15:15:38.332Z,52.90
2019-04-25T15:18:06.831Z,51.90
2019-04-25T15:20:35.429Z,52.10
2019-04-25T15:23:04.251Z,52.90
2019-04-25T15:25:32.730Z,53.60
2019-04-25T15:28:01.225Z,53.40
2019-04-25T15:30:31.319Z,54.10
2019-04-25T15:33:00.891Z,53.90
2019-04-25T15:35:31.008Z,54.10
2019-04-25T15:38:01.076Z,54.00
2019-04-25T15:40:31.246Z,54.00
2019-04-25T15:43:17.879Z,54.10
2019-04-25T15:45:53.900Z,54.00
2019-04-25T15:48:25.206Z,54.00
2019-04-25T15:50:55.478Z,53.70
2019-04-25T15:53:25.665Z,53.50
2019-04-25T15:55:54.336Z,54.10
2019-04-25T15:58:25.344Z,54.80
2019-04-25T16:00:55.469Z,54.80
2019-04-25T16:03:24.156Z,54.50
2019-04-25T16:05:52.596Z,55.50
2019-04-25T16:08:21.067Z,55.10
2019-04-25T16:10:50.660Z,54.50
2019-04-25T16:13:19.866Z,54.80
2019-04-25T16:15:48.339Z,54.00
2019-04-25T16:18:16.887Z,55.20
2019-04-25T16:20:45.369Z,55.20
2019-04-25T16:23:15.368Z,55.30
2019-04-25T16:25:43.844Z,54.80
2019-04-25T16:28:12.291Z,54.60
2019-04-25T16:30:40.902Z,55.00
2019-04-25T16:33:10.180Z,54.50
2019-04-25T16:35:40.406Z,54.30
2019-04-25T16:38:09.625Z,54.30
2019-04-25T16:40:40.078Z,54.60
2019-04-25T16:43:10.193Z,54.40
2019-04-25T16:45:39.870Z,54.10
2019-04-25T16:48:27.682Z,54.70
2019-04-25T16:50:56.190Z,55.30
2019-04-25T16:53:24.683Z,55.20
2019-04-25T16:55:58.645Z,55.90
2019-04-25T16:58:27.128Z,55.70
2019-04-25T17:00:57.354Z,55.80
2019-04-25T17:03:26.388Z,56.90
2019-04-25T17:05:54.911Z,57.40
2019-04-25T17:08:23.537Z,57.70
2019-04-25T17:10:52.031Z,57.20
2019-04-25T17:13:20.614Z,56.90
2019-04-25T17:16:00.014Z,56.90
2019-04-25T17:18:46.805Z,57.70
2019-04-25T17:21:15.865Z,58.10
2019-04-25T17:23:44.310Z,58.20
2019-04-25T17:26:13.532Z,58.40
2019-04-25T17:28:45.187Z,58.30
2019-04-25T17:31:27.971Z,58.70
2019-04-25T17:34:07.295Z,58.80
2019-04-25T17:36:39.437Z,58.50
2019-04-25T17:39:20.091Z,58.00
2019-04-25T17:41:48.576Z,58.60
2019-04-25T17:44:17.033Z,58.60
2019-04-25T17:46:45.505Z,58.40
2019-04-25T17:49:14.055Z,58.90
2019-04-25T17:51:42.902Z,59.20
2019-04-25T17:54:11.338Z,58.90
2019-04-25T17:56:43.147Z,59.00
2019-04-25T17:59:11.666Z,58.50
2019-04-25T18:01:40.315Z,58.80
2019-04-25T18:04:08.864Z,58.30
2019-04-25T18:06:38.022Z,59.30
2019-04-25T18:09:12.703Z,58.70
2019-04-25T18:11:42.201Z,59.10
2019-04-25T18:14:10.800Z,59.30
2019-04-25T18:16:42.439Z,59.60
2019-04-25T18:19:12.830Z,59.40
2019-04-25T18:21:41.302Z,60.10
2019-04-25T18:24:18.197Z,59.70
2019-04-25T18:26:48.272Z,59.60
2019-04-25T18:29:21.189Z,60.40
2019-04-25T18:31:49.635Z,60.60
2019-04-25T18:34:19.771Z,61.10
2019-04-25T18:36:52.750Z,61.30
2019-04-25T18:39:22.858Z,61.90
2019-04-25T18:41:52.977Z,62.10
2019-04-25T18:44:21.461Z,62.40
2019-04-25T18:46:52.547Z,62.60
2019-04-25T18:49:20.997Z,62.60
2019-04-25T18:51:57.582Z,63.00
2019-04-25T18:54:30.430Z,63.60
2019-04-25T18:57:00.577Z,63.90
2019-04-25T18:59:39.821Z,64.30
2019-04-25T19:02:26.226Z,64.60
2019-04-25T19:05:17.414Z,65.10
2019-04-25T19:07:45.305Z,65.70
2019-04-25T19:10:14.535Z,66.20
2019-04-25T19:12:43.195Z,66.50
2019-04-25T19:15:12.252Z,66.60
2019-04-25T19:17:41.378Z,66.50
2019-04-25T19:20:10.149Z,67.10
2019-04-25T19:22:40.129Z,67.00
2019-04-25T19:25:12.454Z,66.40
2019-04-25T19:27:42.025Z,66.60
2019-04-25T19:30:13.181Z,66.90
2019-04-25T19:32:42.169Z,67.50
2019-04-25T19:35:11.702Z,68.20
2019-04-25T19:37:40.588Z,68.80
2019-04-25T19:40:17.183Z,69.30
2019-04-25T19:42:51.113Z,69.50
2019-04-25T19:45:19.796Z,69.90
2019-04-25T19:47:49.223Z,70.30
2019-04-25T19:50:19.222Z,70.60
2019-04-25T19:52:47.748Z,70.80
2019-04-25T19:55:16.386Z,70.80
2019-04-25T19:57:46.551Z,71.00
2019-04-25T20:00:16.241Z,71.10
2019-04-25T20:02:52.998Z,71.40
2019-04-25T20:05:26.179Z,71.50
2019-04-25T20:08:03.489Z,71.40
2019-04-25T20:10:35.243Z,71.30
2019-04-25T20:13:03.772Z,72.00
2019-04-25T20:15:32.251Z,72.60
2019-04-25T20:18:01.097Z,73.60
2019-04-25T20:20:29.596Z,74.60
2019-04-25T20:22:58.489Z,76.00
2019-04-25T20:25:26.962Z,77.40
2019-04-25T20:27:57.409Z,78.50
2019-04-25T20:30:27.614Z,80.20
2019-04-25T20:32:56.198Z,81.30
2019-04-25T20:35:24.948Z,81.30
2019-04-25T20:37:53.527Z,80.90
2019-04-25T20:40:21.989Z,80.50
2019-04-25T20:42:50.591Z,81.30
2019-04-25T20:45:19.559Z,81.50
2019-04-25T20:47:48.062Z,82.00
2019-04-25T20:50:16.916Z,81.60
2019-04-25T20:52:46.319Z,81.40
2019-04-25T20:55:16.027Z,81.50
2019-04-25T20:57:44.547Z,81.40
2019-04-25T21:00:17.590Z,81.20
2019-04-25T21:02:46.051Z,81.40
2019-04-25T21:05:16.147Z,81.20
2019-04-25T21:07:44.607Z,81.40
2019-04-25T21:10:16.556Z,81.30
2019-04-25T21:12:45.526Z,81.20
2019-04-25T21:15:21.929Z,81.60
2019-04-25T21:17:52.308Z,81.80
2019-04-25T21:20:24.155Z,82.10
2019-04-25T21:22:53.583Z,82.60
2019-04-25T21:25:22.307Z,83.10
2019-04-25T21:27:52.561Z,83.40
2019-04-25T21:30:21.120Z,83.80
2019-04-25T21:32:53.518Z,83.60
2019-04-25T21:35:23.074Z,83.80
2019-04-25T21:37:53.547Z,84.20
2019-04-25T21:40:33.780Z,84.30
2019-04-25T21:43:17.452Z,85.40
2019-04-25T21:45:52.815Z,84.80
2019-04-25T21:48:22.445Z,85.00
2019-04-25T21:50:51.350Z,85.00
2019-04-25T21:53:20.969Z,85.20
2019-04-25T21:55:50.320Z,85.30
2019-04-25T21:58:19.123Z,85.50
2019-04-25T22:00:58.243Z,85.50
2019-04-25T22:03:27.315Z,85.70
2019-04-25T22:05:56.838Z,86.00
2019-04-25T22:08:25.592Z,85.90
2019-04-25T22:10:55.797Z,86.00
2019-04-25T22:13:24.828Z,86.30
2019-04-25T22:15:53.666Z,86.10
2019-04-25T22:18:22.508Z,86.00
2019-04-25T22:20:51.098Z,86.30
2019-04-25T22:23:20.053Z,86.90
2019-04-25T22:25:48.781Z,87.10
2019-04-25T22:28:17.674Z,87.10
2019-04-25T22:30:48.086Z,87.30
2019-04-25T22:33:18.184Z,87.40
2019-04-25T22:35:48.347Z,87.40
2019-04-25T22:38:17.120Z,87.30
2019-04-25T22:40:45.633Z,87.40
2019-04-25T22:43:14.986Z,87.40
2019-04-25T22:45:43.767Z,87.60
2019-04-25T22:48:12.248Z,87.70
2019-04-25T22:50:41.075Z,87.90
2019-04-25T22:53:21.087Z,88.10
2019-04-25T22:55:39.723Z,88.30
2019-04-25T22:58:08.167Z,88.50
2019-04-25T23:00:38.846Z,88.60
2019-04-25T23:03:09.373Z,89.20
2019-04-25T23:05:48.494Z,89.40
2019-04-25T23:08:17.307Z,89.50
2019-04-25T23:10:46.077Z,89.70
2019-04-25T23:13:14.864Z,89.60
2019-04-25T23:15:43.443Z,89.80
2019-04-25T23:18:13.409Z,89.80
2019-04-25T23:20:42.107Z,89.70
2019-04-25T23:23:11.725Z,89.40
2019-04-25T23:25:50.844Z,89.40
2019-04-25T23:28:21.504Z,89.50
2019-04-25T23:30:57.867Z,89.40
2019-04-25T23:33:26.486Z,89.40
2019-04-25T23:35:55.030Z,89.30
2019-04-25T23:38:23.546Z,89.80
2019-04-25T23:40:52.022Z,90.10
2019-04-25T23:43:20.745Z,90.40
2019-04-25T23:45:49.282Z,90.70
2019-04-25T23:48:18.093Z,91.00
2019-04-25T23:50:46.554Z,91.10
2019-04-25T23:53:15.106Z,91.30
2019-04-25T23:55:43.558Z,91.50
2019-04-25T23:58:12.070Z,91.60
